createdAt,value
2022-11-24T00:02:17.810Z,81.17
2022-11-24T00:04:44.391Z,82.35
2022-11-24T00:07:10.911Z,82.11
2022-11-24T00:09:37.454Z,82.99
2022-11-24T00:12:04.340Z,82.56
2022-11-24T00:14:31.052Z,83.63
2022-11-24T00:16:57.739Z,84.53
2022-11-24T00:19:24.310Z,86.09
2022-11-24T00:21:50.803Z,87.61
2022-11-24T00:24:17.315Z,88.22
2022-11-24T00:26:43.793Z,87.99
2022-11-24T00:29:11.365Z,87.91
2022-11-24T00:31:41.255Z,86.62
2022-11-24T00:34:11.280Z,86.67
2022-11-24T00:36:38.366Z,86.92
2022-11-24T00:39:15.823Z,86.56
2022-11-24T00:41:42.863Z,86.75
2022-11-24T00:44:09.418Z,86.18
2022-11-24T00:46:36.006Z,86.09
2022-11-24T00:49:03.047Z,85.34
2022-11-24T00:51:30.108Z,85.16
2022-11-24T00:53:57.573Z,84.54
2022-11-24T00:56:25.064Z,85.94
2022-11-24T00:58:51.950Z,85.89
2022-11-24T01:01:23.800Z,86.12
2022-11-24T01:03:50.890Z,85.90
2022-11-24T01:06:22.943Z,86.17
2022-11-24T01:08:49.502Z,86.82
2022-11-24T01:11:30.286Z,87.08
2022-11-24T01:13:58.931Z,87.76
2022-11-24T01:16:30.395Z,87.91
2022-11-24T01:18:57.022Z,88.34
2022-11-24T01:21:23.883Z,87.82
2022-11-24T01:23:50.827Z,88.11
2022-11-24T01:26:20.290Z,88.50
2022-11-24T01:28:47.942Z,88.29
2022-11-24T01:31:15.300Z,87.88
2022-11-24T01:33:41.899Z,88.18
2022-11-24T01:36:08.439Z,88.61
2022-11-24T01:38:35.030Z,87.28
2022-11-24T01:41:03.555Z,86.22
2022-11-24T01:43:30.094Z,85.79
2022-11-24T01:45:57.133Z,86.80
2022-11-24T01:48:28.855Z,87.52
2022-11-24T01:51:10.033Z,88.12
2022-11-24T01:53:37.151Z,88.01
2022-11-24T01:56:04.344Z,87.32
2022-11-24T01:58:32.462Z,86.50
2022-11-24T02:00:59.305Z,86.40
2022-11-24T02:03:30.423Z,86.00
2022-11-24T02:06:02.467Z,86.22
2022-11-24T02:08:42.823Z,86.13
2022-11-24T02:11:09.186Z,85.39
2022-11-24T02:13:37.361Z,85.58
2022-11-24T02:16:06.643Z,85.75
2022-11-24T02:18:33.383Z,85.39
2022-11-24T02:21:01.226Z,85.57
2022-11-24T02:23:35.560Z,85.94
2022-11-24T02:26:26.809Z,86.32
2022-11-24T02:28:53.694Z,86.59
2022-11-24T02:31:20.312Z,87.00
2022-11-24T02:33:48.952Z,86.32
2022-11-24T02:36:15.931Z,86.03
2022-11-24T02:38:42.483Z,86.15
2022-11-24T02:41:18.067Z,86.62
2022-11-24T02:43:55.067Z,85.97
2022-11-24T02:46:22.154Z,86.52
2022-11-24T02:48:48.783Z,86.71
2022-11-24T02:51:15.498Z,85.82
2022-11-24T02:53:41.987Z,85.67
2022-11-24T02:56:08.552Z,84.95
2022-11-24T02:58:35.546Z,85.29
2022-11-24T03:01:02.692Z,84.97
2022-11-24T03:03:29.343Z,85.47
2022-11-24T03:05:55.883Z,85.72
2022-11-24T03:08:22.399Z,86.36
2022-11-24T03:10:48.929Z,86.00
2022-11-24T03:13:15.427Z,87.02
2022-11-24T03:15:42.013Z,86.86
2022-11-24T03:18:08.531Z,85.99
2022-11-24T03:20:35.051Z,85.76
2022-11-24T03:23:01.574Z,86.15
2022-11-24T03:25:28.063Z,86.54
2022-11-24T03:27:56.463Z,86.36
2022-11-24T03:30:22.958Z,85.85
2022-11-24T03:32:51.600Z,85.42
2022-11-24T03:35:18.148Z,84.43
2022-11-24T03:37:44.650Z,83.93
2022-11-24T03:40:11.460Z,83.05
2022-11-24T03:42:37.954Z,83.53
2022-11-24T03:45:29.889Z,83.39
2022-11-24T03:47:51.521Z,83.48
2022-11-24T03:50:18.119Z,83.95
2022-11-24T03:52:44.568Z,83.43
2022-11-24T03:55:11.049Z,83.42
2022-11-24T03:57:37.515Z,83.31
2022-11-24T04:00:04.408Z,82.94
2022-11-24T04:02:30.936Z,82.53
2022-11-24T04:04:57.469Z,82.03
2022-11-24T04:07:24.026Z,82.57
2022-11-24T04:09:50.573Z,83.50
2022-11-24T04:12:17.076Z,83.32
2022-11-24T04:14:51.781Z,83.63
2022-11-24T04:17:18.812Z,84.04
2022-11-24T04:19:45.292Z,84.99
2022-11-24T04:22:11.784Z,85.34
2022-11-24T04:24:38.300Z,85.55
2022-11-24T04:27:04.816Z,85.99
2022-11-24T04:29:31.291Z,85.11
2022-11-24T04:31:57.794Z,84.58
2022-11-24T04:34:24.282Z,85.48
2022-11-24T04:36:50.770Z,85.26
2022-11-24T04:39:25.874Z,85.86
2022-11-24T04:41:53.175Z,85.12
2022-11-24T04:44:19.879Z,85.33
2022-11-24T04:46:46.430Z,85.19
2022-11-24T04:49:12.938Z,84.41
2022-11-24T04:51:39.834Z,84.20
2022-11-24T04:54:13.645Z,83.73
2022-11-24T04:56:41.199Z,84.67
2022-11-24T04:59:08.767Z,84.92
2022-11-24T05:01:35.703Z,85.00
2022-11-24T05:04:02.286Z,85.25
2022-11-24T05:06:28.821Z,84.68
2022-11-24T05:08:55.459Z,85.49
2022-11-24T05:11:22.044Z,85.46
2022-11-24T05:13:48.491Z,84.33
2022-11-24T05:16:15.084Z,83.86
2022-11-24T05:18:41.705Z,83.12
2022-11-24T05:21:08.186Z,83.20
2022-11-24T05:23:34.682Z,83.60
2022-11-24T05:26:01.478Z,83.20
2022-11-24T05:28:28.743Z,84.11
2022-11-24T05:30:58.960Z,84.42
2022-11-24T05:33:25.443Z,83.66
2022-11-24T05:35:53.267Z,83.44
2022-11-24T05:38:19.992Z,82.89
2022-11-24T05:40:46.777Z,82.52
2022-11-24T05:43:15.080Z,82.50
2022-11-24T05:45:41.769Z,82.56
2022-11-24T05:48:10.735Z,82.75
2022-11-24T05:50:37.243Z,82.30
2022-11-24T05:53:12.222Z,83.32
2022-11-24T05:55:40.071Z,82.87
2022-11-24T05:58:08.487Z,83.49
2022-11-24T06:00:35.938Z,83.75
2022-11-24T06:03:02.565Z,83.85
2022-11-24T06:05:29.348Z,84.07
2022-11-24T06:07:56.306Z,83.22
2022-11-24T06:10:23.467Z,83.36
2022-11-24T06:12:50.383Z,83.67
2022-11-24T06:15:16.922Z,83.13
2022-11-24T06:17:43.575Z,83.51
2022-11-24T06:20:10.943Z,83.74
2022-11-24T06:22:37.562Z,84.80
2022-11-24T06:25:04.637Z,84.60
2022-11-24T06:27:31.123Z,84.61
2022-11-24T06:29:57.627Z,84.27
2022-11-24T06:32:24.138Z,84.07
2022-11-24T06:34:50.615Z,83.92
2022-11-24T06:37:17.075Z,83.78
2022-11-24T06:39:43.565Z,84.33
2022-11-24T06:42:10.146Z,85.19
2022-11-24T06:44:36.739Z,84.80
2022-11-24T06:47:03.334Z,84.28
2022-11-24T06:49:29.890Z,84.70
2022-11-24T06:51:56.355Z,84.73
2022-11-24T06:54:22.971Z,83.67
2022-11-24T06:56:49.633Z,83.58
2022-11-24T06:59:18.562Z,82.98
2022-11-24T07:01:45.122Z,82.45
2022-11-24T07:04:11.602Z,82.60
2022-11-24T07:06:38.114Z,82.63
2022-11-24T07:09:04.592Z,83.09
2022-11-24T07:11:31.054Z,82.88
2022-11-24T07:14:00.128Z,82.61
2022-11-24T07:16:27.981Z,82.61
2022-11-24T07:18:55.094Z,81.68
2022-11-24T07:21:22.911Z,80.57
2022-11-24T07:23:50.138Z,80.93
2022-11-24T07:26:17.715Z,80.39
2022-11-24T07:28:44.737Z,79.09
2022-11-24T07:31:13.250Z,78.27
2022-11-24T07:33:40.203Z,78.64
2022-11-24T07:36:07.730Z,79.57
2022-11-24T07:38:34.896Z,78.60
2022-11-24T07:41:01.712Z,79.34
2022-11-24T07:43:30.382Z,78.34
2022-11-24T07:45:56.879Z,78.19
2022-11-24T07:48:23.499Z,77.63
2022-11-24T07:50:55.501Z,77.78
2022-11-24T07:53:22.733Z,77.67
2022-11-24T07:55:56.375Z,77.34
2022-11-24T07:58:23.261Z,78.01
2022-11-24T08:00:49.911Z,77.54
2022-11-24T08:03:16.551Z,78.11
2022-11-24T08:06:07.958Z,79.33
2022-11-24T08:08:31.022Z,79.64
2022-11-24T08:10:57.581Z,80.90
2022-11-24T08:13:24.083Z,79.99
2022-11-24T08:15:50.567Z,80.84
2022-11-24T08:18:17.152Z,80.08
2022-11-24T08:20:45.217Z,79.87
2022-11-24T08:23:14.956Z,80.53
2022-11-24T08:25:41.706Z,79.48
2022-11-24T08:28:08.363Z,78.75
2022-11-24T08:30:34.888Z,77.10
2022-11-24T08:33:01.439Z,75.64
2022-11-24T08:35:28.074Z,75.97
2022-11-24T08:37:54.788Z,75.26
2022-11-24T08:40:23.441Z,75.13
2022-11-24T08:42:49.960Z,75.07
2022-11-24T08:45:20.758Z,74.75
2022-11-24T08:47:52.153Z,73.87
2022-11-24T08:50:18.704Z,73.53
2022-11-24T08:52:45.196Z,74.16
2022-11-24T08:55:11.666Z,74.64
2022-11-24T08:57:38.144Z,75.15
2022-11-24T09:00:05.767Z,75.44
2022-11-24T09:02:32.536Z,74.98
2022-11-24T09:04:58.989Z,75.71
2022-11-24T09:07:25.547Z,74.82
2022-11-24T09:09:52.100Z,74.88
2022-11-24T09:12:18.571Z,74.06
2022-11-24T09:14:45.122Z,72.96
2022-11-24T09:17:11.715Z,72.15
2022-11-24T09:19:42.464Z,71.50
2022-11-24T09:22:09.123Z,72.12
2022-11-24T09:24:35.620Z,70.58
2022-11-24T09:27:03.372Z,70.47
2022-11-24T09:29:29.863Z,68.96
2022-11-24T09:31:57.305Z,69.35
2022-11-24T09:34:26.133Z,67.63
2022-11-24T09:36:53.770Z,67.70
2022-11-24T09:39:20.271Z,66.47
2022-11-24T09:42:06.689Z,66.27
2022-11-24T09:44:52.551Z,64.68
2022-11-24T09:47:33.249Z,63.60
2022-11-24T09:50:04.111Z,63.34
2022-11-24T09:52:40.186Z,64.10
2022-11-24T09:55:42.512Z,64.65
2022-11-24T09:58:27.563Z,67.14
2022-11-24T10:00:55.902Z,69.59
2022-11-24T10:03:46.577Z,69.61
2022-11-24T10:06:39.233Z,69.13
2022-11-24T10:09:17.763Z,69.30
2022-11-24T10:11:51.544Z,68.55
2022-11-24T10:14:21.078Z,68.32
2022-11-24T10:17:07.838Z,66.63
2022-11-24T10:19:48.759Z,67.12
2022-11-24T10:22:28.162Z,67.60
2022-11-24T10:25:00.358Z,68.00
2022-11-24T10:27:33.570Z,66.63
2022-11-24T10:30:00.502Z,64.98
2022-11-24T10:32:32.205Z,65.69
2022-11-24T10:35:00.820Z,64.73
2022-11-24T10:37:37.037Z,64.86
2022-11-24T10:40:48.656Z,64.85
2022-11-24T10:43:11.846Z,64.51
2022-11-24T10:45:39.121Z,64.42
2022-11-24T10:48:10.947Z,64.63
2022-11-24T10:50:41.076Z,64.53
2022-11-24T10:53:18.834Z,64.03
2022-11-24T10:55:54.495Z,64.20
2022-11-24T10:58:37.655Z,63.75
2022-11-24T11:01:13.479Z,66.80
2022-11-24T11:03:51.786Z,64.74
2022-11-24T11:06:26.414Z,65.05
2022-11-24T11:09:08.205Z,64.72
2022-11-24T11:11:38.963Z,65.66
2022-11-24T11:14:06.973Z,65.55
2022-11-24T11:16:40.448Z,66.81
2022-11-24T11:19:50.912Z,65.62
2022-11-24T11:22:29.188Z,65.16
2022-11-24T11:25:10.988Z,66.05
2022-11-24T11:27:39.336Z,66.06
2022-11-24T11:36:10.055Z,65.77
2022-11-24T11:38:38.658Z,65.27
2022-11-24T11:41:05.937Z,65.53
2022-11-24T11:43:35.090Z,65.78
2022-11-24T11:46:15.020Z,65.70
2022-11-24T11:48:44.516Z,65.95
2022-11-24T11:51:33.533Z,66.92
2022-11-24T11:54:23.125Z,66.50
2022-11-24T11:57:11.668Z,66.79
2022-11-24T12:00:18.100Z,66.39
2022-11-24T12:03:08.804Z,66.69
2022-11-24T12:05:47.604Z,67.51
2022-11-24T12:08:56.039Z,67.54
2022-11-24T12:11:51.104Z,66.09
2022-11-24T12:14:39.319Z,65.22
2022-11-24T12:17:29.512Z,64.41
2022-11-24T12:20:17.755Z,63.67
2022-11-24T12:22:52.506Z,63.82
2022-11-24T12:25:39.395Z,62.62
2022-11-24T12:28:32.979Z,59.66
2022-11-24T12:31:30.976Z,59.49
2022-11-24T12:34:01.845Z,58.22
2022-11-24T12:37:06.019Z,58.43
2022-11-24T12:39:40.895Z,58.64
2022-11-24T12:42:30.301Z,58.69
2022-11-24T12:45:04.076Z,57.43
2022-11-24T12:47:49.641Z,58.27
2022-11-24T12:50:19.381Z,57.95
2022-11-24T12:52:58.608Z,58.13
2022-11-24T12:55:27.003Z,57.86
2022-11-24T12:58:10.964Z,57.34
2022-11-24T13:01:15.916Z,57.49
2022-11-24T13:04:05.443Z,58.11
2022-11-24T13:06:47.458Z,58.38
2022-11-24T13:09:15.791Z,55.87
2022-11-24T13:11:45.705Z,56.02
2022-11-24T13:14:15.167Z,59.28
2022-11-24T13:17:21.223Z,58.51
2022-11-24T13:19:38.204Z,59.00
2022-11-24T13:22:07.738Z,58.89
2022-11-24T13:24:36.361Z,58.12
2022-11-24T13:27:15.491Z,58.16
2022-11-24T13:29:46.226Z,59.06
2022-11-24T13:32:12.595Z,60.54
2022-11-24T13:34:39.014Z,60.83
2022-11-24T13:37:35.278Z,56.33
2022-11-24T13:40:31.226Z,57.53
2022-11-24T13:42:57.781Z,60.06
2022-11-24T13:45:39.932Z,59.48
2022-11-24T13:48:18.942Z,59.54
2022-11-24T13:50:51.620Z,59.73
2022-11-24T13:53:42.461Z,59.37
2022-11-24T13:56:22.699Z,57.31
2022-11-24T13:58:55.585Z,57.56
2022-11-24T14:01:25.801Z,59.57
2022-11-24T14:07:00.117Z,60.69
2022-11-24T14:09:52.362Z,61.89
2022-11-24T14:12:20.407Z,63.04
2022-11-24T14:14:51.488Z,63.77
2022-11-24T14:17:22.003Z,64.81
2022-11-24T14:19:50.418Z,65.61
2022-11-24T14:22:22.680Z,66.18
2022-11-24T14:24:57.004Z,67.12
2022-11-24T14:27:32.674Z,66.60
2022-11-24T14:30:17.013Z,66.40
2022-11-24T14:33:00.653Z,66.29
2022-11-24T14:35:32.479Z,67.15
2022-11-24T14:38:01.228Z,67.85
2022-11-24T14:40:47.116Z,68.28
2022-11-24T14:43:21.449Z,68.48
2022-11-24T14:45:55.267Z,68.85
2022-11-24T14:48:27.815Z,68.79
2022-11-24T14:51:14.021Z,68.57
2022-11-24T14:53:44.887Z,69.84
2022-11-24T14:56:23.633Z,71.09
2022-11-24T14:58:50.403Z,71.75
2022-11-24T15:01:37.427Z,72.56
2022-11-24T15:04:46.256Z,72.01
2022-11-24T15:07:25.669Z,72.77
2022-11-24T15:09:58.358Z,71.92
2022-11-24T15:12:27.984Z,71.29
2022-11-24T15:14:58.031Z,71.08
2022-11-24T15:17:27.164Z,70.56
2022-11-24T15:20:16.837Z,70.71
2022-11-24T15:22:46.287Z,69.74
2022-11-24T15:25:35.538Z,70.21
2022-11-24T15:28:04.807Z,70.02
2022-11-24T15:30:34.398Z,70.29
2022-11-24T15:33:01.035Z,70.20
2022-11-24T15:35:34.424Z,70.49
2022-11-24T15:38:00.973Z,70.73
2022-11-24T15:40:27.507Z,71.26
2022-11-24T15:42:55.241Z,73.09
2022-11-24T15:45:23.550Z,74.32
2022-11-24T15:47:50.355Z,74.40
2022-11-24T15:50:16.983Z,73.43
2022-11-24T15:52:44.130Z,73.62
2022-11-24T15:55:21.513Z,74.28
2022-11-24T15:57:48.626Z,73.95
2022-11-24T16:00:20.441Z,73.57
2022-11-24T16:02:47.195Z,74.85
2022-11-24T16:05:14.579Z,74.70
2022-11-24T16:07:41.608Z,74.16
2022-11-24T16:10:23.939Z,73.27
2022-11-24T16:12:50.496Z,73.07
2022-11-24T16:15:17.236Z,72.22
2022-11-24T16:17:44.124Z,71.78
2022-11-24T16:20:13.869Z,70.60
2022-11-24T16:22:40.586Z,69.73
2022-11-24T16:25:07.612Z,69.79
2022-11-24T16:27:34.310Z,71.07
2022-11-24T16:30:05.043Z,69.61
2022-11-24T16:32:31.636Z,69.69
2022-11-24T16:34:58.170Z,69.88
2022-11-24T16:37:24.698Z,69.47
2022-11-24T16:39:51.168Z,68.84
2022-11-24T16:42:17.644Z,69.80
2022-11-24T16:44:44.280Z,69.44
2022-11-24T16:47:10.774Z,69.43
2022-11-24T16:49:37.231Z,70.00
2022-11-24T16:52:03.766Z,70.82
2022-11-24T16:54:32.889Z,71.83
2022-11-24T16:56:59.638Z,71.78
2022-11-24T16:59:26.115Z,71.88
2022-11-24T17:01:52.685Z,72.54
2022-11-24T17:04:19.364Z,73.06
2022-11-24T17:06:45.848Z,73.37
2022-11-24T17:09:12.327Z,73.19
2022-11-24T17:11:38.784Z,73.29
2022-11-24T17:14:05.476Z,73.75
2022-11-24T17:16:32.019Z,73.65
2022-11-24T17:18:58.615Z,73.09
2022-11-24T17:21:26.779Z,73.44
2022-11-24T17:23:57.810Z,73.48
2022-11-24T17:26:24.898Z,72.66
2022-11-24T17:28:51.526Z,72.48
2022-11-24T17:31:22.486Z,72.14
2022-11-24T17:33:53.184Z,71.81
2022-11-24T17:36:20.630Z,71.34
2022-11-24T17:38:47.594Z,70.45
2022-11-24T17:41:14.034Z,68.82
2022-11-24T17:43:40.528Z,68.82
2022-11-24T17:46:07.397Z,67.99
2022-11-24T17:48:35.196Z,68.09
2022-11-24T17:51:03.995Z,67.31
2022-11-24T17:53:30.997Z,66.56
2022-11-24T17:56:01.410Z,67.41
2022-11-24T17:58:29.009Z,68.01
2022-11-24T18:00:55.652Z,68.21
2022-11-24T18:03:22.270Z,67.59
2022-11-24T18:05:48.772Z,65.99
2022-11-24T18:08:15.252Z,65.52
2022-11-24T18:10:41.756Z,66.94
2022-11-24T18:13:08.304Z,67.87
2022-11-24T18:15:36.285Z,68.21
2022-11-24T18:18:02.890Z,67.85
2022-11-24T18:20:29.406Z,68.00
2022-11-24T18:23:05.657Z,67.97
2022-11-24T18:25:32.675Z,67.69
2022-11-24T18:27:59.186Z,66.87
2022-11-24T18:30:25.666Z,67.57
2022-11-24T18:32:52.114Z,66.34
2022-11-24T18:35:18.676Z,66.70
2022-11-24T18:37:47.704Z,67.38
2022-11-24T18:40:14.396Z,67.49
2022-11-24T18:42:40.895Z,66.58
2022-11-24T18:45:07.851Z,67.87
2022-11-24T18:47:34.346Z,67.99
2022-11-24T18:50:00.791Z,66.80
2022-11-24T18:52:27.276Z,67.31
2022-11-24T18:54:53.759Z,67.31
2022-11-24T18:57:20.223Z,67.29
2022-11-24T18:59:46.703Z,67.07
2022-11-24T19:02:13.244Z,67.66
2022-11-24T19:04:44.885Z,66.54
2022-11-24T19:07:11.455Z,66.68
2022-11-24T19:09:37.957Z,65.92
2022-11-24T19:12:04.520Z,65.74
2022-11-24T19:14:31.011Z,64.98
2022-11-24T19:17:00.897Z,64.83
2022-11-24T19:19:29.664Z,65.04
2022-11-24T19:21:56.146Z,65.31
2022-11-24T19:24:22.619Z,65.70
2022-11-24T19:26:49.124Z,66.30
2022-11-24T19:29:15.582Z,66.55
2022-11-24T19:31:42.086Z,66.74
2022-11-24T19:34:11.215Z,66.72
2022-11-24T19:36:40.045Z,67.40
2022-11-24T19:39:07.132Z,66.39
2022-11-24T19:41:33.735Z,67.23
2022-11-24T19:44:00.538Z,66.63
2022-11-24T19:46:28.832Z,67.23
2022-11-24T19:48:56.436Z,67.95
2022-11-24T19:51:25.921Z,68.21
2022-11-24T19:53:53.020Z,68.58
2022-11-24T19:56:24.360Z,68.04
2022-11-24T19:58:51.783Z,67.20
2022-11-24T20:01:28.252Z,67.04
2022-11-24T20:04:00.478Z,67.49
2022-11-24T20:06:33.844Z,67.64
2022-11-24T20:09:01.068Z,67.32
2022-11-24T20:11:28.323Z,67.31
2022-11-24T20:13:56.167Z,67.49
2022-11-24T20:16:26.412Z,67.09
2022-11-24T20:18:53.588Z,67.02
2022-11-24T20:21:21.851Z,68.25
2022-11-24T20:23:58.326Z,68.98
2022-11-24T20:26:27.224Z,68.94
2022-11-24T20:28:55.536Z,68.87
2022-11-24T20:31:25.215Z,68.83
2022-11-24T20:33:51.928Z,69.20
2022-11-24T20:36:26.131Z,68.98
2022-11-24T20:38:53.282Z,69.22
2022-11-24T20:41:22.485Z,68.76
2022-11-24T20:43:49.691Z,68.38
2022-11-24T20:46:20.992Z,69.74
2022-11-24T20:48:49.027Z,69.98
2022-11-24T20:51:18.735Z,70.76
2022-11-24T20:53:45.253Z,70.14
2022-11-24T20:56:15.070Z,69.43
2022-11-24T20:58:42.220Z,69.08
2022-11-24T21:01:11.850Z,70.47
2022-11-24T21:03:43.023Z,69.97
2022-11-24T21:06:11.166Z,69.56
2022-11-24T21:08:38.699Z,69.51
2022-11-24T21:11:06.196Z,69.31
2022-11-24T21:13:34.434Z,70.01
2022-11-24T21:16:06.588Z,70.89
2022-11-24T21:18:33.741Z,70.41
2022-11-24T21:21:00.384Z,69.93
2022-11-24T21:23:26.842Z,69.90
2022-11-24T21:25:53.367Z,69.42
2022-11-24T21:28:19.874Z,69.35
2022-11-24T21:30:46.392Z,68.61
2022-11-24T21:33:12.868Z,69.49
2022-11-24T21:35:39.397Z,69.74
2022-11-24T21:38:05.875Z,69.45
2022-11-24T21:40:32.335Z,69.56
2022-11-24T21:42:59.018Z,69.32
2022-11-24T21:45:26.231Z,70.19
2022-11-24T21:47:52.779Z,69.18
2022-11-24T21:50:19.245Z,68.89
2022-11-24T21:52:45.797Z,68.17
2022-11-24T21:55:12.359Z,68.31
2022-11-24T21:57:38.827Z,68.33
2022-11-24T22:00:06.558Z,68.20
2022-11-24T22:02:33.167Z,69.13
2022-11-24T22:04:59.700Z,68.71
2022-11-24T22:07:30.888Z,69.20
2022-11-24T22:09:59.814Z,68.07
2022-11-24T22:12:26.315Z,67.74
2022-11-24T22:14:52.790Z,67.74
2022-11-24T22:17:19.369Z,68.11
2022-11-24T22:19:45.817Z,68.43
2022-11-24T22:22:12.327Z,68.33
2022-11-24T22:24:39.120Z,68.71
2022-11-24T22:27:05.741Z,68.42
2022-11-24T22:29:32.226Z,67.64
2022-11-24T22:31:58.795Z,67.22
2022-11-24T22:34:25.308Z,65.86
2022-11-24T22:36:51.777Z,67.41
2022-11-24T22:39:18.259Z,67.35
2022-11-24T22:41:45.012Z,67.48
2022-11-24T22:44:11.506Z,67.46
2022-11-24T22:46:37.983Z,68.09
2022-11-24T22:49:04.514Z,68.73
2022-11-24T22:51:33.229Z,68.40
2022-11-24T22:54:04.035Z,68.64
2022-11-24T22:56:30.739Z,68.03
2022-11-24T22:58:57.755Z,69.01
2022-11-24T23:01:25.223Z,69.58
2022-11-24T23:03:52.771Z,68.85
2022-11-24T23:06:21.806Z,68.83
2022-11-24T23:08:49.311Z,68.94
2022-11-24T23:11:36.586Z,69.33
2022-11-24T23:14:04.347Z,68.84
2022-11-24T23:16:31.166Z,68.01
2022-11-24T23:18:57.966Z,67.26
2022-11-24T23:21:27.208Z,68.14
2022-11-24T23:23:54.651Z,68.09
2022-11-24T23:26:24.038Z,67.36
2022-11-24T23:28:50.604Z,68.26
2022-11-24T23:31:20.600Z,67.77
2022-11-24T23:33:47.494Z,67.96
2022-11-24T23:36:16.406Z,69.11
2022-11-24T23:38:46.044Z,69.88
2022-11-24T23:41:15.096Z,69.99
2022-11-24T23:43:42.339Z,69.25
2022-11-24T23:46:10.912Z,70.43
2022-11-24T23:48:37.744Z,70.75
2022-11-24T23:51:12.670Z,70.08
2022-11-24T23:53:39.564Z,69.71
2022-11-24T23:56:06.529Z,69.71
2022-11-24T23:58:33.563Z,69.63
